De Borgia, Montana
Current Conditions -  °F | °C
As of 8:13 PM on Saturday 22 Nov 2014 (Local Time) from KMLP Reporting Station
Light Snow Light Snow  
Wind Chill: 14°   Ceiling: 100
Heat Index: 24°   Visibility: 0.5mi
Dew Point: 23°   Wind: 9mph
Humidity: 96%   Direction: 330°NNW
Pressure: 29.72"   Gusts: 22mph
Location:  47.38°N, 115.34°W
Report Text: KMLP 230313Z AUTO 33008G19KT 290V010 1/2SM -SN FZFG VV001 M04/M05 A2972 RMK AO2 P0000 T10441050
Loading
Personal Weather Stations






























Interactive Weather Map New forecast layout! Learn more

10-Day Weather Forecast

Advertisements
Track Severe Weather on mobile